Αναφορές Αεροδρομίων

 

KSJC - San Jose, California, USA
Distance from station: ΒΑ 14km
Ενημερώθηκε: 16/08/2022 00:53
Αίθριος
Αίθριος
 Ανεμος από ΒΔ
Ανεμος: ΒΔ 15 km/h
Θερμοκρασία: 31°C
Σημείο Δρόσου: 12°C
Υγρασία: 31%
Βαρόμετρο: 1009.8 hPa
Clouds: Αίθριος
Visibility: 16 km
2022/08/15 21:53 KSJC 152153Z 32008KT 10SM CLR 31/12 A2982 RMK AO2 SLP097 T03110122
KNUQ - Moffett Nas/Mtn, California, USA
Distance from station: Β 14km
Ενημερώθηκε: 16/08/2022 00:35
Αίθριος
Αίθριος
 Ανεμος από ΒΔ
Ανεμος: ΒΔ 15 km/h
Θερμοκρασία: 27°C
Heat Index: 27°C
Σημείο Δρόσου: 15°C
Υγρασία: 48%
Βαρόμετρο: 1010.2 hPa
Clouds: Αίθριος
Visibility: 14 km
2022/08/15 21:35 KNUQ 152135Z AUTO 32008KT 9SM CLR 27/15 A2983 RMK AO2
 
KPAO - Palo Alto, California, USA
Distance from station: ΒΒΔ 23km
Ενημερώθηκε: 16/08/2022 00:47
Αίθριος
Αίθριος
 Ανεμος από ΒΒΔ
Ανεμος: ΒΒΔ 20 km/h
Θερμοκρασία: 26°C
Σημείο Δρόσου: 16°C
Υγρασία: 54%
Βαρόμετρο: 1010.2 hPa
Clouds: Αίθριος
Visibility: 16 km
2022/08/15 21:47 KPAO 152147Z 34011KT 10SM SKC 26/16 A2983
KRHV - San Jose/Reid, California, USA
Distance from station: ΑΒΑ 19km
Ενημερώθηκε: 16/08/2022 00:47
Αίθριος
Αίθριος
 Ανεμος από ΒΔ
Ανεμος: ΒΔ 11 km/h
Θερμοκρασία: 33°C
Σημείο Δρόσου: 12°C
Υγρασία: 28%
Βαρόμετρο: 1009.8 hPa
Clouds: Αίθριος
Visibility: 16 km
2022/08/15 21:47 KRHV 152147Z 32006KT 10SM SKC 33/12 A2982
 
KOAK - Oakland, California, USA
Distance from station: ΒΒΔ 50km
Ενημερώθηκε: 16/08/2022 00:53
Few Clouds
Few Clouds
 Ανεμος από ΔΒΔ
Ανεμος: ΔΒΔ 22 km/h
Θερμοκρασία: 25°C
Σημείο Δρόσου: 14°C
Υγρασία: 51%
Βαρόμετρο: 1010.5 hPa
Clouds: Few Clouds
Visibility: 16 km
Cloud details: Few Clouds 305 m
2022/08/15 21:53 KOAK 152153Z 30012KT 10SM FEW010 25/14 A2984 RMK AO2 SLP105 T02500139
KSQL - San Carlos Airpo, California, USA
Distance from station: ΒΔ 34km
Ενημερώθηκε: 16/08/2022 00:47
Αίθριος
Αίθριος
 Ανεμος από ΒΔ
Ανεμος: ΒΔ 28 km/h
Θερμοκρασία: 27°C
Heat Index: 27°C
Σημείο Δρόσου: 14°C
Υγρασία: 45%
Βαρόμετρο: 1010.5 hPa
Clouds: Αίθριος
Visibility: 16 km
2022/08/15 21:47 KSQL 152147Z 32015KT 10SM CLR 27/14 A2984
 
KSFO - San Francisco, California, USA
Distance from station: ΒΔ 49km
Ενημερώθηκε: 15/08/2022 23:56
Αίθριος
Αίθριος
 Ανεμος από ΒΒΔ
Ανεμος: ΒΒΔ 20 km/h
Θερμοκρασία: 24°C
Σημείο Δρόσου: 13°C
Υγρασία: 50%
Βαρόμετρο: 1010.8 hPa
Clouds: Αίθριος
Visibility: 16 km
2022/08/15 20:56 KSFO 152056Z 33011KT 10SM CLR 24/13 A2985 RMK AO2 SLP107 T02390133 58014
KE16 - San Martin, California, USA
Distance from station: ΑΝΑ 43km
Ενημερώθηκε: 16/08/2022 00:35
Αίθριος
Αίθριος
 Ανεμος από Ν
Ανεμος: Ν 7 km/h
Θερμοκρασία: 32°C
Σημείο Δρόσου: 9°C
Υγρασία: 24%
Βαρόμετρο: 1010.5 hPa
Clouds: Αίθριος
Visibility: 14 km
2022/08/15 21:35 KE16 152135Z AUTO 18004KT 9SM CLR 32/09 A2984 RMK AO2 PWINO PNO
 
KWVI - Watsonville, California, USA
Distance from station: ΝΝΑ 44km
Ενημερώθηκε: 16/08/2022 00:53
Αίθριος
Αίθριος
 Ανεμος από Ν
Ανεμος: Ν 15 km/h
Θερμοκρασία: 21°C
Σημείο Δρόσου: 13°C
Υγρασία: 60%
Βαρόμετρο: 1012.2 hPa
Clouds: Αίθριος
Visibility: 16 km
2022/08/15 21:53 KWVI 152153Z AUTO 19008KT 10SM CLR 21/13 A2989 RMK AO2 SLP120 T02060133
KHAF - Half Moon Bay, California, USA
Distance from station: ΔΒΔ 50km
Ενημερώθηκε: 16/08/2022 00:35
Αίθριος
Αίθριος
 Ανεμος από varies
Ανεμος: varies 7 km/h
Θερμοκρασία: 15°C
Σημείο Δρόσου: 14°C
Υγρασία: 94%
Βαρόμετρο: 1012.2 hPa
Clouds: Αίθριος
Visibility: 11 km
2022/08/15 21:35 KHAF 152135Z AUTO VRB04KT 7SM CLR 15/14 A2989 RMK AO2
 
KHWD - Hayward, California, USA
Distance from station: Β 44km
Ενημερώθηκε: 15/08/2022 23:54
Αίθριος
Αίθριος
 Ανεμος από Δ
Ανεμος: Δ 13 km/h
Θερμοκρασία: 27°C
Heat Index: 27°C
Σημείο Δρόσου: 14°C
Υγρασία: 45%
Βαρόμετρο: 1010.5 hPa
Clouds: Αίθριος
Visibility: 16 km
2022/08/15 20:54 KHWD 152054Z 28007KT 10SM CLR 27/14 A2984 RMK AO2 SLP115 T02720139 58015
KLVK - Livermore, California, USA
Distance from station: ΒΒΑ 51km
Ενημερώθηκε: 16/08/2022 00:53
Αίθριος
Αίθριος
 Ανεμος από varies
Ανεμος: varies 7 km/h
Θερμοκρασία: 37°C
Σημείο Δρόσου: -1°C
Υγρασία: 9%
Βαρόμετρο: 1009.1 hPa
Clouds: Αίθριος
Visibility: 16 km
2022/08/15 21:53 KLVK 152153Z VRB04KT 10SM CLR 37/M01 A2980 RMK AO2 SLP087 T03721011